sensor_id;sensor_type;location;lat;lon;timestamp;pressure;altitude;pressure_sealevel;temperature;humidity
59391;BME280;53405;57.012;40.984;2023-08-20T00:02:08;100647.63;;;17.40;81.48
59391;BME280;53405;57.012;40.984;2023-08-20T00:04:37;100668.09;;;17.60;80.71
59391;BME280;53405;57.012;40.984;2023-08-20T00:07:05;100649.44;;;17.60;80.61
59391;BME280;53405;57.012;40.984;2023-08-20T00:09:33;100654.34;;;17.69;79.92
59391;BME280;53405;57.012;40.984;2023-08-20T00:12:01;100650.06;;;17.55;80.22
59391;BME280;53405;57.012;40.984;2023-08-20T00:14:56;100659.50;;;17.51;80.80
59391;BME280;53405;57.012;40.984;2023-08-20T00:17:26;100655.00;;;17.45;81.17
59391;BME280;53405;57.012;40.984;2023-08-20T00:19:54;100652.13;;;17.40;81.49
59391;BME280;53405;57.012;40.984;2023-08-20T00:22:23;100629.25;;;17.19;81.75
59391;BME280;53405;57.012;40.984;2023-08-20T00:24:52;100650.72;;;17.30;81.91
59391;BME280;53405;57.012;40.984;2023-08-20T00:27:21;100651.13;;;17.41;81.66
59391;BME280;53405;57.012;40.984;2023-08-20T00:29:49;100649.66;;;17.51;81.32
59391;BME280;53405;57.012;40.984;2023-08-20T00:32:17;100642.91;;;17.56;81.24
59391;BME280;53405;57.012;40.984;2023-08-20T00:34:44;100620.59;;;17.43;80.88
59391;BME280;53405;57.012;40.984;2023-08-20T00:37:12;100651.28;;;17.59;81.15
59391;BME280;53405;57.012;40.984;2023-08-20T00:39:40;100625.31;;;17.41;80.53
59391;BME280;53405;57.012;40.984;2023-08-20T00:42:08;100639.25;;;17.37;80.88
59391;BME280;53405;57.012;40.984;2023-08-20T00:44:36;100653.16;;;17.45;81.17
59391;BME280;53405;57.012;40.984;2023-08-20T00:47:04;100636.38;;;17.38;81.60
59391;BME280;53405;57.012;40.984;2023-08-20T00:49:32;100636.97;;;17.40;81.37
59391;BME280;53405;57.012;40.984;2023-08-20T00:52:01;100665.41;;;17.66;80.90
59391;BME280;53405;57.012;40.984;2023-08-20T00:54:32;100642.47;;;17.65;80.53
59391;BME280;53405;57.012;40.984;2023-08-20T00:56:59;100658.66;;;17.70;80.90
59391;BME280;53405;57.012;40.984;2023-08-20T00:59:30;100647.56;;;17.74;80.74
59391;BME280;53405;57.012;40.984;2023-08-20T01:02:00;100656.41;;;17.67;81.42
59391;BME280;53405;57.012;40.984;2023-08-20T01:04:29;100650.44;;;17.72;80.39
59391;BME280;53405;57.012;40.984;2023-08-20T01:10:13;100634.06;;;17.62;80.83
59391;BME280;53405;57.012;40.984;2023-08-20T01:12:38;100644.09;;;17.66;80.77
59391;BME280;53405;57.012;40.984;2023-08-20T01:15:06;100633.06;;;17.63;82.07
59391;BME280;53405;57.012;40.984;2023-08-20T01:17:38;100636.72;;;17.68;81.28
59391;BME280;53405;57.012;40.984;2023-08-20T01:20:09;100637.09;;;17.72;81.21
59391;BME280;53405;57.012;40.984;2023-08-20T01:30:58;100625.81;;;17.77;80.47
59391;BME280;53405;57.012;40.984;2023-08-20T01:33:27;100630.38;;;17.69;80.26
59391;BME280;53405;57.012;40.984;2023-08-20T01:35:57;100620.94;;;17.67;80.43
59391;BME280;53405;57.012;40.984;2023-08-20T01:38:25;100619.13;;;17.67;81.09
59391;BME280;53405;57.012;40.984;2023-08-20T01:40:53;100619.50;;;17.71;81.05
59391;BME280;53405;57.012;40.984;2023-08-20T01:43:20;100618.25;;;17.74;81.03
59391;BME280;53405;57.012;40.984;2023-08-20T01:45:48;100606.19;;;17.71;81.45
59391;BME280;53405;57.012;40.984;2023-08-20T01:48:16;100611.50;;;17.78;80.90
59391;BME280;53405;57.012;40.984;2023-08-20T01:50:44;100615.38;;;17.75;80.99
59391;BME280;53405;57.012;40.984;2023-08-20T01:53:13;100614.81;;;17.66;81.16
59391;BME280;53405;57.012;40.984;2023-08-20T01:55:42;100603.97;;;17.61;80.88
59391;BME280;53405;57.012;40.984;2023-08-20T01:58:09;100595.38;;;17.66;80.49
59391;BME280;53405;57.012;40.984;2023-08-20T02:00:38;100596.78;;;17.68;80.36
59391;BME280;53405;57.012;40.984;2023-08-20T02:03:06;100592.69;;;17.66;80.68
59391;BME280;53405;57.012;40.984;2023-08-20T02:05:34;100609.66;;;17.72;80.81
59391;BME280;53405;57.012;40.984;2023-08-20T02:08:04;100611.09;;;17.74;80.97
59391;BME280;53405;57.012;40.984;2023-08-20T02:10:32;100613.97;;;17.73;81.43
59391;BME280;53405;57.012;40.984;2023-08-20T02:13:00;100591.47;;;17.62;81.18
59391;BME280;53405;57.012;40.984;2023-08-20T02:15:28;100605.94;;;17.79;81.15
59391;BME280;53405;57.012;40.984;2023-08-20T02:17:56;100584.53;;;17.54;81.71
59391;BME280;53405;57.012;40.984;2023-08-20T02:20:24;100603.50;;;17.78;80.94
59391;BME280;53405;57.012;40.984;2023-08-20T02:22:54;100611.09;;;17.74;81.48
59391;BME280;53405;57.012;40.984;2023-08-20T02:25:23;100599.00;;;17.72;81.55
59391;BME280;53405;57.012;40.984;2023-08-20T02:27:54;100589.75;;;17.81;81.14
59391;BME280;53405;57.012;40.984;2023-08-20T02:30:23;100572.97;;;17.74;81.16
59391;BME280;53405;57.012;40.984;2023-08-20T02:32:51;100606.97;;;17.92;81.03
59391;BME280;53405;57.012;40.984;2023-08-20T02:35:19;100594.66;;;17.91;81.02
59391;BME280;53405;57.012;40.984;2023-08-20T02:37:50;100570.72;;;17.77;80.93
59391;BME280;53405;57.012;40.984;2023-08-20T02:40:17;100580.53;;;17.83;81.10
59391;BME280;53405;57.012;40.984;2023-08-20T02:42:45;100584.59;;;17.86;81.41
59391;BME280;53405;57.012;40.984;2023-08-20T02:45:13;100593.53;;;17.60;82.72
59391;BME280;53405;57.012;40.984;2023-08-20T02:47:41;100570.00;;;17.57;82.84
59391;BME280;53405;57.012;40.984;2023-08-20T02:50:08;100561.97;;;17.63;82.59
59391;BME280;53405;57.012;40.984;2023-08-20T02:52:37;100583.81;;;17.85;82.07
59391;BME280;53405;57.012;40.984;2023-08-20T02:55:05;100565.72;;;18.01;81.85
59391;BME280;53405;57.012;40.984;2023-08-20T02:57:32;100567.97;;;18.04;81.08
59391;BME280;53405;57.012;40.984;2023-08-20T03:00:00;100565.31;;;18.04;81.32
59391;BME280;53405;57.012;40.984;2023-08-20T03:02:31;100561.78;;;18.10;81.51
59391;BME280;53405;57.012;40.984;2023-08-20T03:04:59;100563.19;;;18.13;80.69
59391;BME280;53405;57.012;40.984;2023-08-20T03:07:27;100560.53;;;18.13;80.51
59391;BME280;53405;57.012;40.984;2023-08-20T03:09:54;100537.22;;;18.01;80.61
59391;BME280;53405;57.012;40.984;2023-08-20T03:12:22;100549.53;;;18.02;81.15
59391;BME280;53405;57.012;40.984;2023-08-20T03:14:50;100547.09;;;17.87;82.08
59391;BME280;53405;57.012;40.984;2023-08-20T03:17:18;100543.38;;;18.02;81.82
59391;BME280;53405;57.012;40.984;2023-08-20T03:19:56;100550.34;;;18.03;81.67
59391;BME280;53405;57.012;40.984;2023-08-20T03:22:26;100552.31;;;18.14;80.87
59391;BME280;53405;57.012;40.984;2023-08-20T03:24:54;100517.56;;;17.96;81.45
59391;BME280;53405;57.012;40.984;2023-08-20T03:27:21;100547.09;;;18.01;81.84
59391;BME280;53405;57.012;40.984;2023-08-20T03:29:49;100533.44;;;17.77;83.17
59391;BME280;53405;57.012;40.984;2023-08-20T03:32:18;100543.03;;;17.85;83.38
59391;BME280;53405;57.012;40.984;2023-08-20T03:34:46;100541.19;;;17.85;82.99
59391;BME280;53405;57.012;40.984;2023-08-20T03:37:17;100549.59;;;17.89;83.05
59391;BME280;53405;57.012;40.984;2023-08-20T03:39:45;100552.22;;;17.96;82.75
59391;BME280;53405;57.012;40.984;2023-08-20T03:42:13;100541.97;;;17.99;82.48
59391;BME280;53405;57.012;40.984;2023-08-20T03:44:41;100540.31;;;17.98;82.37
59391;BME280;53405;57.012;40.984;2023-08-20T03:47:09;100540.00;;;18.20;81.77
59391;BME280;53405;57.012;40.984;2023-08-20T03:49:37;100535.78;;;18.37;81.11
59391;BME280;53405;57.012;40.984;2023-08-20T03:52:07;100513.22;;;18.40;80.52
59391;BME280;53405;57.012;40.984;2023-08-20T03:54:34;100518.69;;;18.45;80.17
59391;BME280;53405;57.012;40.984;2023-08-20T03:57:02;100523.19;;;18.45;80.66
59391;BME280;53405;57.012;40.984;2023-08-20T03:59:30;100513.59;;;18.44;81.11
59391;BME280;53405;57.012;40.984;2023-08-20T04:01:58;100479.72;;;18.19;81.15
59391;BME280;53405;57.012;40.984;2023-08-20T04:04:26;100498.09;;;18.34;81.45
59391;BME280;53405;57.012;40.984;2023-08-20T04:06:54;100504.38;;;18.39;81.08
59391;BME280;53405;57.012;40.984;2023-08-20T04:09:22;100491.44;;;18.43;81.34
59391;BME280;53405;57.012;40.984;2023-08-20T04:11:49;100465.03;;;18.35;80.55
59391;BME280;53405;57.012;40.984;2023-08-20T04:14:17;100451.34;;;18.31;80.46
59391;BME280;53405;57.012;40.984;2023-08-20T04:16:45;100473.81;;;18.42;80.45
59391;BME280;53405;57.012;40.984;2023-08-20T04:19:13;100462.78;;;18.38;81.17
59391;BME280;53405;57.012;40.984;2023-08-20T04:21:41;100466.47;;;18.37;81.99
59391;BME280;53405;57.012;40.984;2023-08-20T04:24:09;100466.47;;;18.37;82.96
59391;BME280;53405;57.012;40.984;2023-08-20T04:26:38;100462.34;;;18.41;82.43
59391;BME280;53405;57.012;40.984;2023-08-20T04:29:06;100457.97;;;18.47;82.59
59391;BME280;53405;57.012;40.984;2023-08-20T04:31:34;100453.34;;;18.36;82.74
59391;BME280;53405;57.012;40.984;2023-08-20T04:34:08;100463.06;;;18.49;83.40
59391;BME280;53405;57.012;40.984;2023-08-20T04:36:40;100460.56;;;18.54;84.03
59391;BME280;53405;57.012;40.984;2023-08-20T04:39:09;100461.34;;;18.61;84.02
59391;BME280;53405;57.012;40.984;2023-08-20T04:41:42;100456.38;;;18.65;83.96
59391;BME280;53405;57.012;40.984;2023-08-20T04:44:15;100444.31;;;18.62;83.83
59391;BME280;53405;57.012;40.984;2023-08-20T04:46:44;100461.34;;;18.61;84.14
59391;BME280;53405;57.012;40.984;2023-08-20T04:49:12;100450.88;;;18.59;84.41
59391;BME280;53405;57.012;40.984;2023-08-20T04:51:42;100449.84;;;18.60;84.17
59391;BME280;53405;57.012;40.984;2023-08-20T04:54:09;100452.09;;;18.64;84.26
59391;BME280;53405;57.012;40.984;2023-08-20T04:56:37;100446.53;;;18.65;83.56
59391;BME280;53405;57.012;40.984;2023-08-20T04:59:05;100445.69;;;18.90;81.89
59391;BME280;53405;57.012;40.984;2023-08-20T05:01:50;100439.53;;;18.89;81.68
59391;BME280;53405;57.012;40.984;2023-08-20T05:04:24;100430.38;;;18.78;82.87
59391;BME280;53405;57.012;40.984;2023-08-20T05:06:52;100430.56;;;18.58;83.82
59391;BME280;53405;57.012;40.984;2023-08-20T05:09:21;100423.00;;;18.55;84.21
59391;BME280;53405;57.012;40.984;2023-08-20T05:11:49;100423.19;;;18.60;84.77
59391;BME280;53405;57.012;40.984;2023-08-20T05:14:17;100420.22;;;18.69;84.83
59391;BME280;53405;57.012;40.984;2023-08-20T05:16:45;100420.38;;;18.74;85.08
59391;BME280;53405;57.012;40.984;2023-08-20T05:19:13;100412.94;;;18.76;84.89
59391;BME280;53405;57.012;40.984;2023-08-20T05:21:40;100419.84;;;18.90;84.77
59391;BME280;53405;57.012;40.984;2023-08-20T05:24:08;100405.72;;;18.83;84.12
59391;BME280;53405;57.012;40.984;2023-08-20T05:26:36;100411.34;;;18.93;83.98
59391;BME280;53405;57.012;40.984;2023-08-20T05:29:04;100409.44;;;19.01;83.90
59391;BME280;53405;57.012;40.984;2023-08-20T05:31:33;100392.22;;;18.96;83.93
59391;BME280;53405;57.012;40.984;2023-08-20T05:34:03;100366.13;;;18.80;83.77
59391;BME280;53405;57.012;40.984;2023-08-20T05:36:31;100387.50;;;18.99;83.65
59391;BME280;53405;57.012;40.984;2023-08-20T05:38:58;100394.41;;;19.06;83.31
59391;BME280;53405;57.012;40.984;2023-08-20T05:41:27;100360.66;;;18.93;83.21
59391;BME280;53405;57.012;40.984;2023-08-20T05:43:55;100377.72;;;19.11;83.04
59391;BME280;53405;57.012;40.984;2023-08-20T05:46:23;100380.19;;;19.24;82.32
59391;BME280;53405;57.012;40.984;2023-08-20T05:48:51;100384.53;;;19.37;81.36
59391;BME280;53405;57.012;40.984;2023-08-20T05:51:20;100379.03;;;19.50;80.97
59391;BME280;53405;57.012;40.984;2023-08-20T05:53:48;100381.06;;;19.37;81.47
59391;BME280;53405;57.012;40.984;2023-08-20T05:56:17;100376.72;;;19.66;80.26
59391;BME280;53405;57.012;40.984;2023-08-20T05:58:45;100344.13;;;19.34;80.38
59391;BME280;53405;57.012;40.984;2023-08-20T06:01:13;100374.63;;;19.56;79.76
59391;BME280;53405;57.012;40.984;2023-08-20T06:03:40;100355.50;;;19.41;80.25
59391;BME280;53405;57.012;40.984;2023-08-20T06:06:08;100376.19;;;19.76;78.83
59391;BME280;53405;57.012;40.984;2023-08-20T06:08:36;100349.09;;;19.60;78.90
59391;BME280;53405;57.012;40.984;2023-08-20T06:11:04;100344.50;;;19.79;79.36
59391;BME280;53405;57.012;40.984;2023-08-20T06:13:32;100368.47;;;20.10;76.76
59391;BME280;53405;57.012;40.984;2023-08-20T06:15:59;100369.19;;;20.17;76.58
59391;BME280;53405;57.012;40.984;2023-08-20T06:18:28;100373.47;;;20.18;76.73
59391;BME280;53405;57.012;40.984;2023-08-20T06:20:55;100371.16;;;20.21;76.83
59391;BME280;53405;57.012;40.984;2023-08-20T06:23:23;100357.88;;;20.15;76.71
59391;BME280;53405;57.012;40.984;2023-08-20T06:25:58;100358.00;;;20.32;76.26
59391;BME280;53405;57.012;40.984;2023-08-20T06:28:26;100367.09;;;20.31;74.92
59391;BME280;53405;57.012;40.984;2023-08-20T06:30:54;100341.84;;;20.27;75.14
59391;BME280;53405;57.012;40.984;2023-08-20T06:33:21;100350.69;;;20.39;74.71
59391;BME280;53405;57.012;40.984;2023-08-20T06:35:49;100340.31;;;20.54;74.24
59391;BME280;53405;57.012;40.984;2023-08-20T06:38:16;100338.34;;;20.50;73.72
59391;BME280;53405;57.012;40.984;2023-08-20T06:40:44;100346.56;;;20.60;73.29
59391;BME280;53405;57.012;40.984;2023-08-20T06:43:12;100347.72;;;20.76;73.51
59391;BME280;53405;57.012;40.984;2023-08-20T06:45:42;100336.72;;;21.01;72.22
59391;BME280;53405;57.012;40.984;2023-08-20T06:48:10;100342.75;;;21.08;72.33
59391;BME280;53405;57.012;40.984;2023-08-20T06:50:38;100339.34;;;21.13;71.89
59391;BME280;53405;57.012;40.984;2023-08-20T06:53:06;100339.53;;;21.23;70.96
59391;BME280;53405;57.012;40.984;2023-08-20T06:55:33;100332.38;;;21.12;69.33
59391;BME280;53405;57.012;40.984;2023-08-20T06:58:02;100341.72;;;21.26;70.35
59391;BME280;53405;57.012;40.984;2023-08-20T07:00:30;100337.53;;;21.30;70.12
59391;BME280;53405;57.012;40.984;2023-08-20T07:02:57;100342.97;;;21.36;69.93
59391;BME280;53405;57.012;40.984;2023-08-20T07:05:25;100343.44;;;21.33;70.06
59391;BME280;53405;57.012;40.984;2023-08-20T07:07:53;100339.09;;;21.43;70.56
59391;BME280;53405;57.012;40.984;2023-08-20T07:10:21;100306.38;;;21.41;70.13
59391;BME280;53405;57.012;40.984;2023-08-20T07:12:49;100323.72;;;21.51;69.62
59391;BME280;53405;57.012;40.984;2023-08-20T07:15:16;100330.06;;;21.33;69.55
59391;BME280;53405;57.012;40.984;2023-08-20T07:17:44;100332.31;;;21.53;69.16
59391;BME280;53405;57.012;40.984;2023-08-20T07:20:12;100331.91;;;21.61;68.95
59391;BME280;53405;57.012;40.984;2023-08-20T07:22:40;100329.16;;;21.56;69.10
59391;BME280;53405;57.012;40.984;2023-08-20T07:25:10;100337.34;;;21.49;69.48
59391;BME280;53405;57.012;40.984;2023-08-20T07:27:37;100338.50;;;21.70;70.18
59391;BME280;53405;57.012;40.984;2023-08-20T07:30:05;100339.28;;;21.71;69.48
59391;BME280;53405;57.012;40.984;2023-08-20T07:32:34;100332.72;;;21.61;69.09
59391;BME280;53405;57.012;40.984;2023-08-20T07:35:03;100334.03;;;21.59;69.93
59391;BME280;53405;57.012;40.984;2023-08-20T07:37:30;100327.78;;;21.70;68.53
59391;BME280;53405;57.012;40.984;2023-08-20T07:39:58;100319.31;;;21.78;68.64
59391;BME280;53405;57.012;40.984;2023-08-20T07:42:26;100322.72;;;21.74;69.62
59391;BME280;53405;57.012;40.984;2023-08-20T07:44:54;100322.81;;;21.62;70.22
59391;BME280;53405;57.012;40.984;2023-08-20T07:47:22;100308.09;;;21.64;69.37
59391;BME280;53405;57.012;40.984;2023-08-20T07:49:50;100308.34;;;21.63;70.00
59391;BME280;53405;57.012;40.984;2023-08-20T07:52:17;100318.69;;;21.54;70.10
59391;BME280;53405;57.012;40.984;2023-08-20T07:54:45;100316.38;;;21.63;69.94
59391;BME280;53405;57.012;40.984;2023-08-20T07:57:12;100300.66;;;21.67;70.45
59391;BME280;53405;57.012;40.984;2023-08-20T07:59:40;100310.31;;;21.68;70.97
59391;BME280;53405;57.012;40.984;2023-08-20T08:02:07;100281.31;;;21.47;70.74
59391;BME280;53405;57.012;40.984;2023-08-20T08:04:35;100297.63;;;21.63;70.05
59391;BME280;53405;57.012;40.984;2023-08-20T08:07:03;100295.94;;;21.74;70.37
59391;BME280;53405;57.012;40.984;2023-08-20T08:09:31;100289.91;;;21.83;69.95
59391;BME280;53405;57.012;40.984;2023-08-20T08:12:00;100285.38;;;22.01;70.00
59391;BME280;53405;57.012;40.984;2023-08-20T08:14:28;100290.59;;;22.13;69.76
59391;BME280;53405;57.012;40.984;2023-08-20T08:16:56;100291.75;;;22.17;69.08
59391;BME280;53405;57.012;40.984;2023-08-20T08:19:23;100302.31;;;22.07;69.93
59391;BME280;53405;57.012;40.984;2023-08-20T08:21:51;100264.44;;;21.81;69.54
59391;BME280;53405;57.012;40.984;2023-08-20T08:24:19;100283.25;;;22.03;69.89
59391;BME280;53405;57.012;40.984;2023-08-20T08:26:46;100282.28;;;21.92;69.52
59391;BME280;53405;57.012;40.984;2023-08-20T08:29:14;100257.69;;;21.78;69.95
59391;BME280;53405;57.012;40.984;2023-08-20T08:31:41;100282.56;;;22.13;70.40
59391;BME280;53405;57.012;40.984;2023-08-20T08:34:10;100244.28;;;21.78;70.03
59391;BME280;53405;57.012;40.984;2023-08-20T08:36:38;100246.63;;;21.92;69.93
59391;BME280;53405;57.012;40.984;2023-08-20T08:39:06;100275.41;;;22.18;69.92
59391;BME280;53405;57.012;40.984;2023-08-20T08:41:35;100251.44;;;22.12;70.33
59391;BME280;53405;57.012;40.984;2023-08-20T08:44:08;100273.34;;;22.26;69.51
59391;BME280;53405;57.012;40.984;2023-08-20T08:46:38;100273.19;;;22.32;70.22
59391;BME280;53405;57.012;40.984;2023-08-20T08:49:06;100256.69;;;22.24;70.22
59391;BME280;53405;57.012;40.984;2023-08-20T08:51:36;100253.22;;;22.23;70.34
59391;BME280;53405;57.012;40.984;2023-08-20T08:54:05;100273.81;;;22.40;70.34
59391;BME280;53405;57.012;40.984;2023-08-20T08:56:33;100263.34;;;22.38;69.81
59391;BME280;53405;57.012;40.984;2023-08-20T08:59:01;100254.88;;;22.29;70.49
59391;BME280;53405;57.012;40.984;2023-08-20T09:01:29;100257.75;;;22.23;70.65
59391;BME280;53405;57.012;40.984;2023-08-20T09:03:59;100259.03;;;22.37;70.60
59391;BME280;53405;57.012;40.984;2023-08-20T09:06:26;100257.22;;;22.43;70.69
59391;BME280;53405;57.012;40.984;2023-08-20T09:09:03;100256.53;;;22.30;71.05
59391;BME280;53405;57.012;40.984;2023-08-20T09:11:35;100248.09;;;22.22;71.91
59391;BME280;53405;57.012;40.984;2023-08-20T09:14:03;100252.06;;;22.19;72.03
59391;BME280;53405;57.012;40.984;2023-08-20T09:16:31;100255.94;;;22.28;72.14
59391;BME280;53405;57.012;40.984;2023-08-20T09:19:00;100251.72;;;22.32;71.75
59391;BME280;53405;57.012;40.984;2023-08-20T09:21:28;100250.66;;;22.33;71.95
59391;BME280;53405;57.012;40.984;2023-08-20T09:23:57;100240.88;;;22.44;71.80
59391;BME280;53405;57.012;40.984;2023-08-20T09:26:25;100235.63;;;22.54;71.85
59391;BME280;53405;57.012;40.984;2023-08-20T09:28:55;100235.25;;;22.68;71.38
59391;BME280;53405;57.012;40.984;2023-08-20T09:31:45;100234.28;;;22.79;70.97
59391;BME280;53405;57.012;40.984;2023-08-20T09:34:15;100227.44;;;22.94;70.66
59391;BME280;53405;57.012;40.984;2023-08-20T09:36:43;100225.09;;;23.02;69.83
59391;BME280;53405;57.012;40.984;2023-08-20T09:39:10;100231.25;;;22.98;70.25
59391;BME280;53405;57.012;40.984;2023-08-20T09:41:38;100221.47;;;23.14;69.54
59391;BME280;53405;57.012;40.984;2023-08-20T09:44:08;100223.38;;;23.18;69.16
59391;BME280;53405;57.012;40.984;2023-08-20T09:46:36;100209.75;;;23.25;68.46
59391;BME280;53405;57.012;40.984;2023-08-20T09:49:06;100219.72;;;23.30;68.30
59391;BME280;53405;57.012;40.984;2023-08-20T09:51:37;100221.13;;;23.37;67.96
59391;BME280;53405;57.012;40.984;2023-08-20T09:56:37;100201.38;;;23.21;68.23
59391;BME280;53405;57.012;40.984;2023-08-20T09:59:06;100211.94;;;23.33;67.59
59391;BME280;53405;57.012;40.984;2023-08-20T10:01:35;100215.22;;;23.40;67.71
59391;BME280;53405;57.012;40.984;2023-08-20T10:04:05;100209.56;;;23.37;67.77
59391;BME280;53405;57.012;40.984;2023-08-20T10:06:33;100191.66;;;23.15;68.07
59391;BME280;53405;57.012;40.984;2023-08-20T10:09:01;100199.22;;;23.18;68.42
59391;BME280;53405;57.012;40.984;2023-08-20T10:11:30;100173.81;;;23.04;68.13
59391;BME280;53405;57.012;40.984;2023-08-20T10:13:57;100190.13;;;23.24;68.43
59391;BME280;53405;57.012;40.984;2023-08-20T10:16:27;100183.66;;;23.25;68.53
59391;BME280;53405;57.012;40.984;2023-08-20T10:18:55;100182.09;;;23.30;68.33
59391;BME280;53405;57.012;40.984;2023-08-20T10:21:26;100191.56;;;23.37;67.87
59391;BME280;53405;57.012;40.984;2023-08-20T10:23:55;100182.97;;;23.35;67.77
59391;BME280;53405;57.012;40.984;2023-08-20T10:26:23;100191.88;;;23.46;67.76
59391;BME280;53405;57.012;40.984;2023-08-20T10:31:58;100181.94;;;23.41;67.67
59391;BME280;53405;57.012;40.984;2023-08-20T10:34:33;100182.97;;;23.35;68.73
59391;BME280;53405;57.012;40.984;2023-08-20T10:37:13;100176.31;;;23.43;68.84
59391;BME280;53405;57.012;40.984;2023-08-20T10:39:41;100175.91;;;23.67;69.52
59391;BME280;53405;57.012;40.984;2023-08-20T10:42:22;100167.09;;;23.81;67.93
59391;BME280;53405;57.012;40.984;2023-08-20T10:45:01;100160.72;;;23.98;67.74
59391;BME280;53405;57.012;40.984;2023-08-20T10:47:47;100156.78;;;24.21;66.77
59391;BME280;53405;57.012;40.984;2023-08-20T10:50:17;100137.69;;;24.23;65.90
59391;BME280;53405;57.012;40.984;2023-08-20T10:52:48;100144.97;;;24.32;65.46
59391;BME280;53405;57.012;40.984;2023-08-20T10:55:22;100138.75;;;24.11;67.12
59391;BME280;53405;57.012;40.984;2023-08-20T10:57:58;100143.84;;;24.13;67.00
59391;BME280;53405;57.012;40.984;2023-08-20T11:00:27;100111.00;;;23.95;67.15
59391;BME280;53405;57.012;40.984;2023-08-20T11:02:57;100141.38;;;24.01;67.49
59391;BME280;53405;57.012;40.984;2023-08-20T11:05:26;100144.84;;;23.91;67.91
59391;BME280;53405;57.012;40.984;2023-08-20T11:07:54;100128.75;;;24.02;69.15
59391;BME280;53405;57.012;40.984;2023-08-20T11:10:22;100122.94;;;24.56;67.18
59391;BME280;53405;57.012;40.984;2023-08-20T11:12:50;100132.94;;;24.66;66.47
59391;BME280;53405;57.012;40.984;2023-08-20T11:15:17;100131.28;;;24.44;67.30
59391;BME280;53405;57.012;40.984;2023-08-20T11:17:46;100130.97;;;24.30;68.71
59391;BME280;53405;57.012;40.984;2023-08-20T11:20:16;100117.91;;;23.81;70.87
59391;BME280;53405;57.012;40.984;2023-08-20T11:22:44;100133.16;;;23.65;73.29
59391;BME280;53405;57.012;40.984;2023-08-20T11:25:12;100137.75;;;23.27;77.42
59391;BME280;53405;57.012;40.984;2023-08-20T11:27:41;100114.25;;;22.74;78.55
59391;BME280;53405;57.012;40.984;2023-08-20T11:30:09;100129.63;;;22.52;80.27
59391;BME280;53405;57.012;40.984;2023-08-20T11:32:39;100122.81;;;22.17;81.62
59391;BME280;53405;57.012;40.984;2023-08-20T11:35:07;100130.28;;;21.93;84.17
59391;BME280;53405;57.012;40.984;2023-08-20T11:37:35;100125.59;;;21.61;87.06
59391;BME280;53405;57.012;40.984;2023-08-20T11:40:07;100117.75;;;21.76;85.56
59391;BME280;53405;57.012;40.984;2023-08-20T11:42:37;100121.69;;;21.69;86.75
59391;BME280;53405;57.012;40.984;2023-08-20T11:45:05;100117.56;;;21.61;87.14
59391;BME280;53405;57.012;40.984;2023-08-20T11:47:41;100133.31;;;21.40;89.72
59391;BME280;53405;57.012;40.984;2023-08-20T11:50:09;100117.94;;;21.30;90.26
59391;BME280;53405;57.012;40.984;2023-08-20T11:52:38;100126.22;;;21.12;91.15
59391;BME280;53405;57.012;40.984;2023-08-20T11:55:07;100115.69;;;20.88;92.89
59391;BME280;53405;57.012;40.984;2023-08-20T11:57:35;100111.22;;;20.77;94.89
59391;BME280;53405;57.012;40.984;2023-08-20T12:00:04;100131.00;;;20.76;95.65
59391;BME280;53405;57.012;40.984;2023-08-20T12:02:43;100137.53;;;20.68;96.82
59391;BME280;53405;57.012;40.984;2023-08-20T12:05:12;100120.38;;;20.64;97.50
59391;BME280;53405;57.012;40.984;2023-08-20T12:07:39;100132.78;;;20.70;97.10
59391;BME280;53405;57.012;40.984;2023-08-20T12:10:28;100128.84;;;20.61;96.03
59391;BME280;53405;57.012;40.984;2023-08-20T12:12:57;100124.47;;;20.55;96.77
59391;BME280;53405;57.012;40.984;2023-08-20T12:15:25;100123.53;;;20.49;97.03
59391;BME280;53405;57.012;40.984;2023-08-20T12:18:03;100122.56;;;20.67;98.31
59391;BME280;53405;57.012;40.984;2023-08-20T12:20:33;100125.59;;;21.05;98.08
59391;BME280;53405;57.012;40.984;2023-08-20T12:23:03;100133.03;;;21.20;96.77
59391;BME280;53405;57.012;40.984;2023-08-20T12:25:33;100129.00;;;21.39;94.87
59391;BME280;53405;57.012;40.984;2023-08-20T12:28:03;100127.13;;;21.57;92.90
59391;BME280;53405;57.012;40.984;2023-08-20T12:30:32;100108.78;;;21.65;92.24
59391;BME280;53405;57.012;40.984;2023-08-20T12:33:04;100108.09;;;21.75;90.64
59391;BME280;53405;57.012;40.984;2023-08-20T12:35:32;100105.31;;;21.65;90.67
59391;BME280;53405;57.012;40.984;2023-08-20T12:38:00;100102.31;;;21.44;91.73
59391;BME280;53405;57.012;40.984;2023-08-20T12:40:31;100091.91;;;21.65;91.16
59391;BME280;53405;57.012;40.984;2023-08-20T12:42:58;100102.00;;;21.80;87.92
59391;BME280;53405;57.012;40.984;2023-08-20T12:45:26;100092.16;;;21.46;90.79
59391;BME280;53405;57.012;40.984;2023-08-20T12:47:54;100098.75;;;21.56;91.00
59391;BME280;53405;57.012;40.984;2023-08-20T12:50:22;100070.34;;;21.38;88.88
59391;BME280;53405;57.012;40.984;2023-08-20T12:52:53;100087.44;;;21.15;92.07
59391;BME280;53405;57.012;40.984;2023-08-20T12:55:20;100097.66;;;21.18;88.30
59391;BME280;53405;57.012;40.984;2023-08-20T12:57:58;100098.56;;;21.06;90.14
59391;BME280;53405;57.012;40.984;2023-08-20T13:00:27;100070.50;;;20.92;92.47
59391;BME280;53405;57.012;40.984;2023-08-20T13:02:55;100098.41;;;20.96;92.33
59391;BME280;53405;57.012;40.984;2023-08-20T13:05:24;100098.88;;;20.93;93.38
59391;BME280;53405;57.012;40.984;2023-08-20T13:07:52;100097.81;;;21.11;90.88